Tekonsha, Michigan
Current Conditions -  °F | °C
As of 7:45 PM on Saturday 22 Nov 2014 (Local Time) from KRMY Reporting Station
Overcast Overcast  
Wind Chill: 40°   Ceiling: 1900
Heat Index: 45°   Visibility: 7mi
Dew Point: 45°   Wind: 9mph
Humidity: 100%   Direction: 210°SSW
Pressure: 29.91"   Gusts: NA
Location:  42.09°N, 84.99°W
Report Text: KRMY 230045Z AUTO 21008KT 7SM OVC019 07/07 A2991 RMK AO2
Loading
Personal Weather Stations






























Interactive Weather Map New forecast layout! Learn more

10-Day Weather Forecast

Advertisements
Track Severe Weather on mobile